This is the latest recevied weather packets stored in our database for station/object K7MT-WX. If no packets are shown the sender has not sent any weather packets the latest 1 day(s).
| Time | Temp. | Humidity | Pressure | Rain* | Wind** | Luminosity | Snow |
|---|---|---|---|---|---|---|---|
| 1777991651 | 4.44° C | 61% | 1018 hPa | 0 mm | 0 m/s | - | - |
| 1777990751 | 3.89° C | 63% | 1017.9 hPa | 0 mm | 0 m/s | - | - |
| 1777989851 | 3.33° C | 66% | 1017.9 hPa | 0 mm | 0 m/s | - | - |
| 1777988951 | 2.78° C | 71% | 1017.8 hPa | 0 mm | 0 m/s | - | - |
| 1777988051 | 2.22° C | 70% | 1017.7 hPa | 0 mm | 0 m/s | - | - |
| 1777987151 | 1.67° C | 72% | 1017.5 hPa | 0 mm | 0 m/s | - | - |
| 1777986251 | 1.11° C | 73% | 1017.4 hPa | 0 mm | 0 m/s | - | - |
| 1777985351 | 0.56° C | 72% | 1017.1 hPa | 0 mm | 0 m/s | - | - |
| 1777984450 | 0.56° C | 72% | 1017.1 hPa | 0 mm | 0 m/s | - | - |
| 1777983551 | 0.56° C | 72% | 1016.9 hPa | 0 mm | 0 m/s | - | - |
| 1777982650 | 0.56° C | 71% | 1016.7 hPa | 0 mm | 0 m/s | - | - |
| 1777981751 | 0.56° C | 70% | 1016.7 hPa | 0 mm | 0.45 m/s, 71° | - | - |
| 1777980851 | 0° C | 72% | 1016.5 hPa | 0 mm | 0 m/s | - | - |
| 1777979950 | 0° C | 72% | 1016.5 hPa | 0 mm | 0 m/s | - | - |
| 1777979051 | 1.11° C | 71% | 1016.6 hPa | 0 mm | 0 m/s | - | - |
| 1777978151 | 1.11° C | 70% | 1016.5 hPa | 0 mm | 0 m/s | - | - |
| 1777977251 | 1.11° C | 68% | 1016.6 hPa | 0 mm | 0 m/s | - | - |
| 1777976350 | 1.67° C | 66% | 1016.6 hPa | 0 mm | 0 m/s | - | - |
| 1777975450 | 1.67° C | 69% | 1016.5 hPa | 0 mm | 0 m/s | - | - |
| 1777974550 | 1.67° C | 67% | 1016.5 hPa | 0 mm | 0 m/s | - | - |
| 1777973651 | 1.67° C | 67% | 1016.2 hPa | 0 mm | 0 m/s | - | - |
| 1777972751 | 1.11° C | 69% | 1016.2 hPa | 0 mm | 0 m/s | - | - |
| 1777971851 | 1.11° C | 68% | 1016.3 hPa | 0 mm | 0 m/s | - | - |
* Rain latest hour (hover to see other rain measurements)
** Current wind speed in m/s (hover to see current wind gust speed)